Cork Airport

Airport
ICAO code: 
EICK
IATA Code: 
ORK
Summary
ICAO Region: 
EUR
Territory: 
Location: 
Cork, County Cork
Serving: 
Cork
Elevation: 
502 ft
Coordinates: 
Aerial View: 
51° 50' 29" N, 8° 29' 28" W
Metar
Observation
EICK 041200Z 27015KT 9999 VCSH SCT016 SCT027 06/02 Q1005 NOSIG
Station
Cork Airport
Date/Time
2021-12-04 12:00:00
Wind direction
270°
Wind speed
15 kts
Lowest cloud amount
scattered clouds
Temperature
6°C
Dew point
2°C
Humidity
75%
QNH
1005 hPa
Weather condition
in vicinity: showers

Description

International airport serving Cork.

Climatology

Temperate Marine climate/Oceanic climate (Köppen climate classification Cfb). Moderately cool summer and comparatively warm winter with a temperature range of only 14°C. Prevailing south-westerly winds from the Atlantic Ocean.

Runways

Designator Length Width Surface Rops
7/25 1310 45 PEM Yes/Yes
17/35 2133 45 ASP Yes/Yes
Airport map: 
Aerial View: 

Accidents and Serious Incidents at or in the vicinity of EICK

SKYbrary Partners:

Safety knowledge contributed by: